sensor_id;sensor_type;location;lat;lon;timestamp;temperature;humidity
23124;DHT22;11731;48.592;8.858;2023-05-10T00:00:17;15.80;99.90
23124;DHT22;11731;48.592;8.858;2023-05-10T00:03:55;15.80;99.90
23124;DHT22;11731;48.592;8.858;2023-05-10T00:09:10;15.60;99.90
23124;DHT22;11731;48.592;8.858;2023-05-10T00:11:37;15.50;99.90
23124;DHT22;11731;48.592;8.858;2023-05-10T00:14:06;15.30;99.90
23124;DHT22;11731;48.592;8.858;2023-05-10T00:16:33;15.30;99.90
23124;DHT22;11731;48.592;8.858;2023-05-10T00:18:59;15.30;99.90
23124;DHT22;11731;48.592;8.858;2023-05-10T00:21:26;15.30;99.90
23124;DHT22;11731;48.592;8.858;2023-05-10T00:23:54;15.20;99.90
23124;DHT22;11731;48.592;8.858;2023-05-10T00:29:28;15.70;99.90
23124;DHT22;11731;48.592;8.858;2023-05-10T00:31:55;16.00;99.90
23124;DHT22;11731;48.592;8.858;2023-05-10T00:34:22;15.90;99.90
23124;DHT22;11731;48.592;8.858;2023-05-10T00:38:07;16.10;99.90
23124;DHT22;11731;48.592;8.858;2023-05-10T00:40:07;16.20;99.90
23124;DHT22;11731;48.592;8.858;2023-05-10T00:42:34;16.40;99.90
23124;DHT22;11731;48.592;8.858;2023-05-10T00:45:03;16.30;99.90
23124;DHT22;11731;48.592;8.858;2023-05-10T00:47:30;16.00;99.90
23124;DHT22;11731;48.592;8.858;2023-05-10T00:49:57;15.80;99.90
23124;DHT22;11731;48.592;8.858;2023-05-10T00:52:26;15.70;99.90
23124;DHT22;11731;48.592;8.858;2023-05-10T00:54:53;15.80;99.90
23124;DHT22;11731;48.592;8.858;2023-05-10T00:57:26;15.60;99.90
23124;DHT22;11731;48.592;8.858;2023-05-10T00:59:53;15.50;99.90
23124;DHT22;11731;48.592;8.858;2023-05-10T01:02:22;15.30;99.90
23124;DHT22;11731;48.592;8.858;2023-05-10T01:04:49;14.90;99.90
23124;DHT22;11731;48.592;8.858;2023-05-10T01:07:16;14.60;99.90
23124;DHT22;11731;48.592;8.858;2023-05-10T01:09:43;14.50;99.90
23124;DHT22;11731;48.592;8.858;2023-05-10T01:12:09;14.60;99.90
23124;DHT22;11731;48.592;8.858;2023-05-10T01:14:39;14.80;99.90
23124;DHT22;11731;48.592;8.858;2023-05-10T01:20:41;14.50;99.90
23124;DHT22;11731;48.592;8.858;2023-05-10T01:23:36;14.60;99.90
23124;DHT22;11731;48.592;8.858;2023-05-10T01:26:39;14.70;99.90
23124;DHT22;11731;48.592;8.858;2023-05-10T01:32:32;14.40;99.90
23124;DHT22;11731;48.592;8.858;2023-05-10T01:35:23;14.40;99.90
23124;DHT22;11731;48.592;8.858;2023-05-10T01:38:44;14.70;99.90
23124;DHT22;11731;48.592;8.858;2023-05-10T01:41:08;14.40;99.90
23124;DHT22;11731;48.592;8.858;2023-05-10T01:44:06;14.50;99.90
23124;DHT22;11731;48.592;8.858;2023-05-10T01:46:37;14.70;99.90
23124;DHT22;11731;48.592;8.858;2023-05-10T01:52:38;15.20;99.90
23124;DHT22;11731;48.592;8.858;2023-05-10T01:55:08;15.30;99.90
23124;DHT22;11731;48.592;8.858;2023-05-10T01:57:37;15.40;99.90
23124;DHT22;11731;48.592;8.858;2023-05-10T02:00:07;15.60;99.90
23124;DHT22;11731;48.592;8.858;2023-05-10T02:02:37;15.20;99.90
23124;DHT22;11731;48.592;8.858;2023-05-10T02:05:06;15.40;99.90
23124;DHT22;11731;48.592;8.858;2023-05-10T02:07:35;15.10;99.90
23124;DHT22;11731;48.592;8.858;2023-05-10T02:10:05;14.80;99.90
23124;DHT22;11731;48.592;8.858;2023-05-10T02:12:35;14.50;99.90
23124;DHT22;11731;48.592;8.858;2023-05-10T02:15:04;14.40;99.90
23124;DHT22;11731;48.592;8.858;2023-05-10T02:18:35;14.50;99.90
23124;DHT22;11731;48.592;8.858;2023-05-10T02:20:50;14.50;99.90
23124;DHT22;11731;48.592;8.858;2023-05-10T02:23:33;14.60;99.90
23124;DHT22;11731;48.592;8.858;2023-05-10T02:26:02;14.70;99.90
23124;DHT22;11731;48.592;8.858;2023-05-10T02:28:32;14.70;99.90
23124;DHT22;11731;48.592;8.858;2023-05-10T02:31:10;14.80;99.90
23124;DHT22;11731;48.592;8.858;2023-05-10T02:33:43;15.00;99.90
23124;DHT22;11731;48.592;8.858;2023-05-10T02:39:09;15.30;99.90
23124;DHT22;11731;48.592;8.858;2023-05-10T02:41:41;15.20;99.90
23124;DHT22;11731;48.592;8.858;2023-05-10T02:44:09;15.30;99.90
23124;DHT22;11731;48.592;8.858;2023-05-10T02:46:38;15.10;99.90
23124;DHT22;11731;48.592;8.858;2023-05-10T02:49:21;15.00;99.90
23124;DHT22;11731;48.592;8.858;2023-05-10T02:54:18;14.80;99.90
23124;DHT22;11731;48.592;8.858;2023-05-10T02:55:16;14.70;99.90
23124;DHT22;11731;48.592;8.858;2023-05-10T02:57:50;15.00;99.90
23124;DHT22;11731;48.592;8.858;2023-05-10T03:00:19;14.80;99.90
23124;DHT22;11731;48.592;8.858;2023-05-10T03:02:46;14.60;99.90
23124;DHT22;11731;48.592;8.858;2023-05-10T03:05:13;14.60;99.90
23124;DHT22;11731;48.592;8.858;2023-05-10T03:07:40;14.70;99.90
23124;DHT22;11731;48.592;8.858;2023-05-10T03:10:07;14.60;99.90
23124;DHT22;11731;48.592;8.858;2023-05-10T03:12:48;14.50;99.90
23124;DHT22;11731;48.592;8.858;2023-05-10T03:21:17;14.10;99.90
23124;DHT22;11731;48.592;8.858;2023-05-10T03:22:21;14.10;99.90
23124;DHT22;11731;48.592;8.858;2023-05-10T03:24:49;14.10;99.90
23124;DHT22;11731;48.592;8.858;2023-05-10T03:29:53;14.20;99.90
23124;DHT22;11731;48.592;8.858;2023-05-10T03:32:21;14.20;99.90
23124;DHT22;11731;48.592;8.858;2023-05-10T03:35:16;14.50;99.90
23124;DHT22;11731;48.592;8.858;2023-05-10T03:37:43;14.70;99.90
23124;DHT22;11731;48.592;8.858;2023-05-10T03:40:10;14.70;99.90
23124;DHT22;11731;48.592;8.858;2023-05-10T03:43:14;14.50;99.90
23124;DHT22;11731;48.592;8.858;2023-05-10T03:45:42;14.50;99.90
23124;DHT22;11731;48.592;8.858;2023-05-10T03:48:09;14.70;99.90
23124;DHT22;11731;48.592;8.858;2023-05-10T03:53:41;15.00;99.90
23124;DHT22;11731;48.592;8.858;2023-05-10T03:56:10;15.30;99.90
23124;DHT22;11731;48.592;8.858;2023-05-10T03:59:02;15.50;99.90
23124;DHT22;11731;48.592;8.858;2023-05-10T04:01:34;15.80;99.90
23124;DHT22;11731;48.592;8.858;2023-05-10T04:04:01;16.00;99.90
23124;DHT22;11731;48.592;8.858;2023-05-10T04:06:28;15.90;99.90
23124;DHT22;11731;48.592;8.858;2023-05-10T04:08:55;15.90;99.90
23124;DHT22;11731;48.592;8.858;2023-05-10T04:11:55;15.80;99.90
23124;DHT22;11731;48.592;8.858;2023-05-10T04:14:20;15.80;99.90
23124;DHT22;11731;48.592;8.858;2023-05-10T04:16:48;15.80;99.90
23124;DHT22;11731;48.592;8.858;2023-05-10T04:19:15;15.80;99.90
23124;DHT22;11731;48.592;8.858;2023-05-10T04:21:42;16.00;99.90
23124;DHT22;11731;48.592;8.858;2023-05-10T04:24:09;16.10;99.90
23124;DHT22;11731;48.592;8.858;2023-05-10T04:26:36;15.90;99.90
23124;DHT22;11731;48.592;8.858;2023-05-10T04:29:22;15.50;99.90
23124;DHT22;11731;48.592;8.858;2023-05-10T04:34:55;15.50;99.90
23124;DHT22;11731;48.592;8.858;2023-05-10T04:39:57;15.70;99.90
23124;DHT22;11731;48.592;8.858;2023-05-10T04:42:25;15.50;99.90
23124;DHT22;11731;48.592;8.858;2023-05-10T04:44:52;15.60;99.90
23124;DHT22;11731;48.592;8.858;2023-05-10T04:47:19;15.40;99.90
23124;DHT22;11731;48.592;8.858;2023-05-10T04:49:46;15.60;99.90
23124;DHT22;11731;48.592;8.858;2023-05-10T04:52:14;15.90;99.90
23124;DHT22;11731;48.592;8.858;2023-05-10T04:55:15;15.90;99.90
23124;DHT22;11731;48.592;8.858;2023-05-10T05:01:09;15.90;99.90
23124;DHT22;11731;48.592;8.858;2023-05-10T05:03:36;15.80;99.90
23124;DHT22;11731;48.592;8.858;2023-05-10T05:06:16;15.60;99.90
23124;DHT22;11731;48.592;8.858;2023-05-10T05:11:44;14.80;99.90
23124;DHT22;11731;48.592;8.858;2023-05-10T05:14:11;14.90;99.90
23124;DHT22;11731;48.592;8.858;2023-05-10T05:16:43;15.20;99.90
23124;DHT22;11731;48.592;8.858;2023-05-10T05:19:10;15.30;99.90
23124;DHT22;11731;48.592;8.858;2023-05-10T05:21:44;15.30;99.90
23124;DHT22;11731;48.592;8.858;2023-05-10T05:24:25;15.20;99.90
23124;DHT22;11731;48.592;8.858;2023-05-10T05:26:53;14.90;99.90
23124;DHT22;11731;48.592;8.858;2023-05-10T05:29:20;14.60;99.90
23124;DHT22;11731;48.592;8.858;2023-05-10T05:31:47;14.60;99.90
23124;DHT22;11731;48.592;8.858;2023-05-10T05:34:14;14.70;99.90
23124;DHT22;11731;48.592;8.858;2023-05-10T05:36:40;14.50;99.90
23124;DHT22;11731;48.592;8.858;2023-05-10T05:39:07;14.30;99.90
23124;DHT22;11731;48.592;8.858;2023-05-10T05:41:35;14.50;99.90
23124;DHT22;11731;48.592;8.858;2023-05-10T05:44:03;14.50;99.90
23124;DHT22;11731;48.592;8.858;2023-05-10T05:46:30;14.60;99.90
23124;DHT22;11731;48.592;8.858;2023-05-10T05:49:11;14.60;99.90
23124;DHT22;11731;48.592;8.858;2023-05-10T05:51:40;14.70;99.90
23124;DHT22;11731;48.592;8.858;2023-05-10T05:54:07;14.70;99.90
23124;DHT22;11731;48.592;8.858;2023-05-10T05:56:34;14.60;99.90
23124;DHT22;11731;48.592;8.858;2023-05-10T05:59:05;14.50;99.90
23124;DHT22;11731;48.592;8.858;2023-05-10T06:01:32;14.60;99.90
23124;DHT22;11731;48.592;8.858;2023-05-10T06:03:59;14.70;99.90
23124;DHT22;11731;48.592;8.858;2023-05-10T06:06:26;14.70;99.90
23124;DHT22;11731;48.592;8.858;2023-05-10T06:08:54;14.80;99.90
23124;DHT22;11731;48.592;8.858;2023-05-10T06:11:50;14.80;99.90
23124;DHT22;11731;48.592;8.858;2023-05-10T06:20:41;15.70;99.90
23124;DHT22;11731;48.592;8.858;2023-05-10T06:23:08;15.80;99.90
23124;DHT22;11731;48.592;8.858;2023-05-10T06:25:40;16.10;99.90
23124;DHT22;11731;48.592;8.858;2023-05-10T06:28:07;16.30;99.90
23124;DHT22;11731;48.592;8.858;2023-05-10T06:30:36;16.20;99.90
23124;DHT22;11731;48.592;8.858;2023-05-10T06:33:03;16.40;99.90
23124;DHT22;11731;48.592;8.858;2023-05-10T06:35:37;16.70;99.90
23124;DHT22;11731;48.592;8.858;2023-05-10T06:38:05;16.80;99.90
23124;DHT22;11731;48.592;8.858;2023-05-10T06:40:34;16.90;99.90
23124;DHT22;11731;48.592;8.858;2023-05-10T06:43:01;17.00;99.90
23124;DHT22;11731;48.592;8.858;2023-05-10T06:45:28;16.90;99.90
23124;DHT22;11731;48.592;8.858;2023-05-10T06:47:55;16.60;99.90
23124;DHT22;11731;48.592;8.858;2023-05-10T06:50:22;16.00;99.90
23124;DHT22;11731;48.592;8.858;2023-05-10T06:52:48;15.70;99.90
23124;DHT22;11731;48.592;8.858;2023-05-10T06:55:17;15.90;99.90
23124;DHT22;11731;48.592;8.858;2023-05-10T06:57:44;15.90;99.90
23124;DHT22;11731;48.592;8.858;2023-05-10T07:00:11;15.80;99.90
23124;DHT22;11731;48.592;8.858;2023-05-10T07:02:38;16.20;99.90
23124;DHT22;11731;48.592;8.858;2023-05-10T07:05:05;16.60;99.90
23124;DHT22;11731;48.592;8.858;2023-05-10T07:07:32;16.70;99.90
23124;DHT22;11731;48.592;8.858;2023-05-10T07:09:59;16.50;99.90
23124;DHT22;11731;48.592;8.858;2023-05-10T07:12:27;16.90;99.90
23124;DHT22;11731;48.592;8.858;2023-05-10T07:19:26;16.50;99.90
23124;DHT22;11731;48.592;8.858;2023-05-10T07:21:26;16.20;99.90
23124;DHT22;11731;48.592;8.858;2023-05-10T07:24:13;16.10;99.90
23124;DHT22;11731;48.592;8.858;2023-05-10T07:26:55;15.80;99.90
23124;DHT22;11731;48.592;8.858;2023-05-10T07:30:02;15.90;99.90
23124;DHT22;11731;48.592;8.858;2023-05-10T07:32:29;16.30;99.90
23124;DHT22;11731;48.592;8.858;2023-05-10T07:34:58;16.10;99.90
23124;DHT22;11731;48.592;8.858;2023-05-10T07:37:39;16.60;99.90
23124;DHT22;11731;48.592;8.858;2023-05-10T07:40:07;16.40;99.90
23124;DHT22;11731;48.592;8.858;2023-05-10T07:42:34;16.30;99.90
23124;DHT22;11731;48.592;8.858;2023-05-10T07:45:08;16.20;99.90
23124;DHT22;11731;48.592;8.858;2023-05-10T07:47:35;16.20;99.90
23124;DHT22;11731;48.592;8.858;2023-05-10T07:50:03;16.40;99.90
23124;DHT22;11731;48.592;8.858;2023-05-10T07:52:30;16.40;99.90
23124;DHT22;11731;48.592;8.858;2023-05-10T07:54:56;17.00;99.90
23124;DHT22;11731;48.592;8.858;2023-05-10T07:57:23;17.00;99.90
23124;DHT22;11731;48.592;8.858;2023-05-10T07:59:50;17.20;99.90
23124;DHT22;11731;48.592;8.858;2023-05-10T08:02:18;17.60;99.90
23124;DHT22;11731;48.592;8.858;2023-05-10T08:04:45;17.50;99.90
23124;DHT22;11731;48.592;8.858;2023-05-10T08:07:12;17.30;99.90
23124;DHT22;11731;48.592;8.858;2023-05-10T08:09:39;17.20;99.90
23124;DHT22;11731;48.592;8.858;2023-05-10T08:12:06;17.20;99.90
23124;DHT22;11731;48.592;8.858;2023-05-10T08:14:33;17.30;99.90
23124;DHT22;11731;48.592;8.858;2023-05-10T08:17:02;17.30;99.90
23124;DHT22;11731;48.592;8.858;2023-05-10T08:19:30;17.50;99.90
23124;DHT22;11731;48.592;8.858;2023-05-10T08:21:57;17.80;99.90
23124;DHT22;11731;48.592;8.858;2023-05-10T08:24:24;17.80;99.90
23124;DHT22;11731;48.592;8.858;2023-05-10T08:26:54;17.40;99.90
23124;DHT22;11731;48.592;8.858;2023-05-10T08:37:10;17.90;99.90
23124;DHT22;11731;48.592;8.858;2023-05-10T08:39:44;17.90;99.90
23124;DHT22;11731;48.592;8.858;2023-05-10T08:42:16;17.50;99.90
23124;DHT22;11731;48.592;8.858;2023-05-10T08:44:46;17.70;99.90
23124;DHT22;11731;48.592;8.858;2023-05-10T08:49:47;17.70;99.90
23124;DHT22;11731;48.592;8.858;2023-05-10T08:52:18;17.80;99.90
23124;DHT22;11731;48.592;8.858;2023-05-10T08:54:45;17.50;99.90
23124;DHT22;11731;48.592;8.858;2023-05-10T08:57:12;17.50;99.90
23124;DHT22;11731;48.592;8.858;2023-05-10T08:59:39;17.50;99.90
23124;DHT22;11731;48.592;8.858;2023-05-10T09:02:08;17.50;99.90
23124;DHT22;11731;48.592;8.858;2023-05-10T09:04:36;17.60;99.90
23124;DHT22;11731;48.592;8.858;2023-05-10T09:07:03;18.20;99.90
23124;DHT22;11731;48.592;8.858;2023-05-10T09:09:32;18.30;99.90
23124;DHT22;11731;48.592;8.858;2023-05-10T09:12:00;18.30;99.90
23124;DHT22;11731;48.592;8.858;2023-05-10T09:14:27;17.50;99.90
23124;DHT22;11731;48.592;8.858;2023-05-10T09:16:54;17.40;99.90
23124;DHT22;11731;48.592;8.858;2023-05-10T09:19:21;17.70;99.90
23124;DHT22;11731;48.592;8.858;2023-05-10T09:21:49;18.20;99.90
23124;DHT22;11731;48.592;8.858;2023-05-10T09:24:16;17.80;99.90
23124;DHT22;11731;48.592;8.858;2023-05-10T09:26:47;17.70;99.90
23124;DHT22;11731;48.592;8.858;2023-05-10T09:29:14;17.50;99.90
23124;DHT22;11731;48.592;8.858;2023-05-10T09:31:46;17.40;99.90
23124;DHT22;11731;48.592;8.858;2023-05-10T09:34:17;17.50;99.90
23124;DHT22;11731;48.592;8.858;2023-05-10T09:36:55;17.70;99.90
23124;DHT22;11731;48.592;8.858;2023-05-10T09:39:30;18.30;99.90
23124;DHT22;11731;48.592;8.858;2023-05-10T09:42:01;18.50;99.90
23124;DHT22;11731;48.592;8.858;2023-05-10T09:44:31;18.10;99.90
23124;DHT22;11731;48.592;8.858;2023-05-10T09:46:58;17.90;99.90
23124;DHT22;11731;48.592;8.858;2023-05-10T09:49:25;17.80;99.90
23124;DHT22;11731;48.592;8.858;2023-05-10T09:52:00;18.00;99.90
23124;DHT22;11731;48.592;8.858;2023-05-10T09:54:28;18.00;99.90
23124;DHT22;11731;48.592;8.858;2023-05-10T09:56:55;18.20;99.90
23124;DHT22;11731;48.592;8.858;2023-05-10T09:59:25;17.90;99.90
23124;DHT22;11731;48.592;8.858;2023-05-10T10:01:52;17.60;99.90
23124;DHT22;11731;48.592;8.858;2023-05-10T10:04:20;17.70;99.90
23124;DHT22;11731;48.592;8.858;2023-05-10T10:06:58;17.60;99.90
23124;DHT22;11731;48.592;8.858;2023-05-10T10:09:25;17.90;99.90
23124;DHT22;11731;48.592;8.858;2023-05-10T10:11:54;18.50;99.90
23124;DHT22;11731;48.592;8.858;2023-05-10T10:14:23;18.70;99.90
23124;DHT22;11731;48.592;8.858;2023-05-10T10:16:51;18.50;99.90
23124;DHT22;11731;48.592;8.858;2023-05-10T10:19:19;18.10;99.90
23124;DHT22;11731;48.592;8.858;2023-05-10T10:21:46;17.50;99.90
23124;DHT22;11731;48.592;8.858;2023-05-10T10:24:13;16.90;99.90
23124;DHT22;11731;48.592;8.858;2023-05-10T10:26:42;16.90;99.90
23124;DHT22;11731;48.592;8.858;2023-05-10T10:29:18;16.80;99.90
23124;DHT22;11731;48.592;8.858;2023-05-10T10:31:55;16.30;99.90
23124;DHT22;11731;48.592;8.858;2023-05-10T10:34:26;15.70;99.90
23124;DHT22;11731;48.592;8.858;2023-05-10T10:36:55;15.20;99.90
23124;DHT22;11731;48.592;8.858;2023-05-10T10:39:24;14.60;99.90
23124;DHT22;11731;48.592;8.858;2023-05-10T10:41:52;14.70;99.90
23124;DHT22;11731;48.592;8.858;2023-05-10T10:44:30;14.50;99.90
23124;DHT22;11731;48.592;8.858;2023-05-10T10:49:51;14.90;99.90
23124;DHT22;11731;48.592;8.858;2023-05-10T10:52:23;15.40;99.90
23124;DHT22;11731;48.592;8.858;2023-05-10T10:54:58;15.80;99.90
23124;DHT22;11731;48.592;8.858;2023-05-10T10:57:25;15.50;99.90
23124;DHT22;11731;48.592;8.858;2023-05-10T11:00:17;15.90;99.90
23124;DHT22;11731;48.592;8.858;2023-05-10T11:02:47;15.90;99.90
23124;DHT22;11731;48.592;8.858;2023-05-10T11:05:39;15.80;99.90
23124;DHT22;11731;48.592;8.858;2023-05-10T11:08:09;16.10;99.90
23124;DHT22;11731;48.592;8.858;2023-05-10T11:10:36;16.00;99.90
23124;DHT22;11731;48.592;8.858;2023-05-10T11:13:04;15.90;99.90
23124;DHT22;11731;48.592;8.858;2023-05-10T11:15:31;16.10;99.90
23124;DHT22;11731;48.592;8.858;2023-05-10T11:18:15;16.50;99.90
23124;DHT22;11731;48.592;8.858;2023-05-10T11:20:42;16.80;99.90
23124;DHT22;11731;48.592;8.858;2023-05-10T11:23:13;16.60;99.90
23124;DHT22;11731;48.592;8.858;2023-05-10T11:25:43;16.80;99.90
23124;DHT22;11731;48.592;8.858;2023-05-10T11:28:11;16.80;99.90
23124;DHT22;11731;48.592;8.858;2023-05-10T11:30:38;16.90;99.90
23124;DHT22;11731;48.592;8.858;2023-05-10T11:33:07;17.30;99.90
23124;DHT22;11731;48.592;8.858;2023-05-10T11:35:38;17.20;99.90
23124;DHT22;11731;48.592;8.858;2023-05-10T11:38:06;17.00;99.90
23124;DHT22;11731;48.592;8.858;2023-05-10T11:40:33;17.00;99.90
23124;DHT22;11731;48.592;8.858;2023-05-10T11:43:00;16.70;99.90
23124;DHT22;11731;48.592;8.858;2023-05-10T11:45:27;17.00;99.90
23124;DHT22;11731;48.592;8.858;2023-05-10T11:47:55;17.30;99.90
23124;DHT22;11731;48.592;8.858;2023-05-10T11:50:23;17.50;99.90
23124;DHT22;11731;48.592;8.858;2023-05-10T11:52:51;17.80;99.90
23124;DHT22;11731;48.592;8.858;2023-05-10T11:55:18;17.60;99.90
23124;DHT22;11731;48.592;8.858;2023-05-10T11:57:45;17.00;99.90
23124;DHT22;11731;48.592;8.858;2023-05-10T12:00:13;16.80;99.90
23124;DHT22;11731;48.592;8.858;2023-05-10T12:02:40;16.80;99.90
23124;DHT22;11731;48.592;8.858;2023-05-10T12:05:08;16.70;99.90
23124;DHT22;11731;48.592;8.858;2023-05-10T12:07:36;16.30;99.90
23124;DHT22;11731;48.592;8.858;2023-05-10T12:10:07;16.20;99.90
23124;DHT22;11731;48.592;8.858;2023-05-10T12:12:38;16.30;99.90
23124;DHT22;11731;48.592;8.858;2023-05-10T12:15:10;16.40;99.90
23124;DHT22;11731;48.592;8.858;2023-05-10T12:17:38;16.80;99.90
23124;DHT22;11731;48.592;8.858;2023-05-10T12:20:18;16.90;99.90
23124;DHT22;11731;48.592;8.858;2023-05-10T12:22:51;17.00;99.90
23124;DHT22;11731;48.592;8.858;2023-05-10T12:25:19;16.70;99.90
23124;DHT22;11731;48.592;8.858;2023-05-10T12:27:51;16.70;99.90
23124;DHT22;11731;48.592;8.858;2023-05-10T12:30:22;16.90;99.90
23124;DHT22;11731;48.592;8.858;2023-05-10T12:32:49;17.10;99.90
23124;DHT22;11731;48.592;8.858;2023-05-10T12:35:17;17.10;99.90
23124;DHT22;11731;48.592;8.858;2023-05-10T12:37:46;17.50;99.90
23124;DHT22;11731;48.592;8.858;2023-05-10T12:40:14;17.30;98.90
23124;DHT22;11731;48.592;8.858;2023-05-10T12:42:41;17.10;99.20
23124;DHT22;11731;48.592;8.858;2023-05-10T12:45:11;17.30;99.90
23124;DHT22;11731;48.592;8.858;2023-05-10T12:47:38;17.30;99.90
23124;DHT22;11731;48.592;8.858;2023-05-10T12:50:06;17.30;99.90
23124;DHT22;11731;48.592;8.858;2023-05-10T12:52:33;17.50;98.90
23124;DHT22;11731;48.592;8.858;2023-05-10T12:55:00;17.50;99.00
23124;DHT22;11731;48.592;8.858;2023-05-10T12:57:28;17.40;98.90
23124;DHT22;11731;48.592;8.858;2023-05-10T12:59:56;17.50;99.40
23124;DHT22;11731;48.592;8.858;2023-05-10T13:02:23;17.30;99.20
23124;DHT22;11731;48.592;8.858;2023-05-10T13:04:50;17.00;99.00
23124;DHT22;11731;48.592;8.858;2023-05-10T13:07:20;17.20;99.90
23124;DHT22;11731;48.592;8.858;2023-05-10T13:09:46;17.20;98.90
23124;DHT22;11731;48.592;8.858;2023-05-10T13:12:13;17.00;99.70
23124;DHT22;11731;48.592;8.858;2023-05-10T13:14:42;17.20;99.90
23124;DHT22;11731;48.592;8.858;2023-05-10T13:17:08;17.50;99.90
23124;DHT22;11731;48.592;8.858;2023-05-10T13:19:35;17.80;98.90
23124;DHT22;11731;48.592;8.858;2023-05-10T13:22:02;17.80;99.40
23124;DHT22;11731;48.592;8.858;2023-05-10T13:24:29;18.10;99.90
23124;DHT22;11731;48.592;8.858;2023-05-10T13:26:56;18.50;98.90
23124;DHT22;11731;48.592;8.858;2023-05-10T13:29:23;18.80;98.10
23124;DHT22;11731;48.592;8.858;2023-05-10T13:31:51;19.00;98.10
23124;DHT22;11731;48.592;8.858;2023-05-10T13:34:18;19.10;97.80
23124;DHT22;11731;48.592;8.858;2023-05-10T13:36:47;18.60;98.50
23124;DHT22;11731;48.592;8.858;2023-05-10T13:39:14;18.70;97.70
23124;DHT22;11731;48.592;8.858;2023-05-10T13:41:41;18.70;98.60
23124;DHT22;11731;48.592;8.858;2023-05-10T13:44:08;19.10;98.80
23124;DHT22;11731;48.592;8.858;2023-05-10T13:46:35;19.10;97.20
23124;DHT22;11731;48.592;8.858;2023-05-10T13:49:03;19.10;97.10
23124;DHT22;11731;48.592;8.858;2023-05-10T13:51:30;18.60;97.30
23124;DHT22;11731;48.592;8.858;2023-05-10T13:53:57;18.70;98.80
23124;DHT22;11731;48.592;8.858;2023-05-10T13:56:24;19.10;96.90
23124;DHT22;11731;48.592;8.858;2023-05-10T13:58:51;18.90;97.80
23124;DHT22;11731;48.592;8.858;2023-05-10T14:01:18;18.60;98.40
23124;DHT22;11731;48.592;8.858;2023-05-10T14:03:45;18.50;98.20
23124;DHT22;11731;48.592;8.858;2023-05-10T14:06:13;18.20;96.80
23124;DHT22;11731;48.592;8.858;2023-05-10T14:08:40;18.30;97.10
23124;DHT22;11731;48.592;8.858;2023-05-10T14:11:07;18.00;96.70
23124;DHT22;11731;48.592;8.858;2023-05-10T14:13:34;17.90;97.50
23124;DHT22;11731;48.592;8.858;2023-05-10T14:16:01;18.20;97.50
23124;DHT22;11731;48.592;8.858;2023-05-10T14:18:28;18.40;97.60
23124;DHT22;11731;48.592;8.858;2023-05-10T14:20:55;18.50;97.00
23124;DHT22;11731;48.592;8.858;2023-05-10T14:23:23;18.40;97.20
23124;DHT22;11731;48.592;8.858;2023-05-10T14:25:51;18.50;97.20
23124;DHT22;11731;48.592;8.858;2023-05-10T14:28:18;18.40;97.70
23124;DHT22;11731;48.592;8.858;2023-05-10T14:30:46;18.30;98.30
23124;DHT22;11731;48.592;8.858;2023-05-10T14:33:13;18.20;98.40
23124;DHT22;11731;48.592;8.858;2023-05-10T14:35:40;18.40;98.00
23124;DHT22;11731;48.592;8.858;2023-05-10T14:38:07;18.50;96.40
23124;DHT22;11731;48.592;8.858;2023-05-10T14:40:35;18.70;95.40
23124;DHT22;11731;48.592;8.858;2023-05-10T14:43:02;19.10;95.70
23124;DHT22;11731;48.592;8.858;2023-05-10T14:45:29;19.20;96.90
23124;DHT22;11731;48.592;8.858;2023-05-10T14:47:56;19.00;96.40
23124;DHT22;11731;48.592;8.858;2023-05-10T14:50:24;19.10;96.10
23124;DHT22;11731;48.592;8.858;2023-05-10T14:52:51;19.10;95.30
23124;DHT22;11731;48.592;8.858;2023-05-10T14:55:18;19.00;94.50
23124;DHT22;11731;48.592;8.858;2023-05-10T14:57:47;18.60;94.40
23124;DHT22;11731;48.592;8.858;2023-05-10T15:00:16;18.20;95.30
23124;DHT22;11731;48.592;8.858;2023-05-10T15:02:44;18.10;95.90
23124;DHT22;11731;48.592;8.858;2023-05-10T15:05:11;18.20;95.80
23124;DHT22;11731;48.592;8.858;2023-05-10T15:07:38;18.20;95.90
23124;DHT22;11731;48.592;8.858;2023-05-10T15:10:06;18.20;95.80
23124;DHT22;11731;48.592;8.858;2023-05-10T15:12:33;18.70;95.50
23124;DHT22;11731;48.592;8.858;2023-05-10T15:15:01;18.40;96.10
23124;DHT22;11731;48.592;8.858;2023-05-10T15:17:28;18.60;95.50
23124;DHT22;11731;48.592;8.858;2023-05-10T15:19:55;18.60;95.80
23124;DHT22;11731;48.592;8.858;2023-05-10T15:22:22;19.00;95.60
23124;DHT22;11731;48.592;8.858;2023-05-10T15:24:49;19.20;95.60
23124;DHT22;11731;48.592;8.858;2023-05-10T15:27:16;19.60;94.70
23124;DHT22;11731;48.592;8.858;2023-05-10T15:29:43;19.20;94.90
23124;DHT22;11731;48.592;8.858;2023-05-10T15:32:11;18.70;95.60
23124;DHT22;11731;48.592;8.858;2023-05-10T15:34:38;18.90;96.30
23124;DHT22;11731;48.592;8.858;2023-05-10T15:37:05;19.20;95.60
23124;DHT22;11731;48.592;8.858;2023-05-10T15:39:32;19.80;95.30
23124;DHT22;11731;48.592;8.858;2023-05-10T15:41:59;19.80;94.90
23124;DHT22;11731;48.592;8.858;2023-05-10T15:44:26;19.80;94.00
23124;DHT22;11731;48.592;8.858;2023-05-10T15:46:53;19.70;95.20
23124;DHT22;11731;48.592;8.858;2023-05-10T15:49:21;19.70;94.80
23124;DHT22;11731;48.592;8.858;2023-05-10T15:51:48;19.30;95.80
23124;DHT22;11731;48.592;8.858;2023-05-10T15:54:15;19.70;94.70
23124;DHT22;11731;48.592;8.858;2023-05-10T15:56:42;20.30;93.70
23124;DHT22;11731;48.592;8.858;2023-05-10T15:59:09;20.40;93.90
23124;DHT22;11731;48.592;8.858;2023-05-10T16:01:36;20.00;95.80
23124;DHT22;11731;48.592;8.858;2023-05-10T16:04:03;19.60;95.70
23124;DHT22;11731;48.592;8.858;2023-05-10T16:06:31;18.50;97.20
23124;DHT22;11731;48.592;8.858;2023-05-10T16:08:58;17.60;99.30
23124;DHT22;11731;48.592;8.858;2023-05-10T16:11:25;16.70;99.90
23124;DHT22;11731;48.592;8.858;2023-05-10T16:13:52;16.40;99.90
23124;DHT22;11731;48.592;8.858;2023-05-10T16:16:19;16.10;99.90
23124;DHT22;11731;48.592;8.858;2023-05-10T16:18:46;15.90;99.90
23124;DHT22;11731;48.592;8.858;2023-05-10T16:21:13;15.70;99.90
23124;DHT22;11731;48.592;8.858;2023-05-10T16:23:41;15.50;99.90
23124;DHT22;11731;48.592;8.858;2023-05-10T16:26:10;15.40;99.90
23124;DHT22;11731;48.592;8.858;2023-05-10T16:28:37;15.40;99.90
23124;DHT22;11731;48.592;8.858;2023-05-10T16:31:05;15.40;99.90
23124;DHT22;11731;48.592;8.858;2023-05-10T16:33:32;15.50;99.90
23124;DHT22;11731;48.592;8.858;2023-05-10T16:35:59;15.30;99.90
23124;DHT22;11731;48.592;8.858;2023-05-10T16:38:26;15.00;99.90
23124;DHT22;11731;48.592;8.858;2023-05-10T16:40:54;14.90;99.90
23124;DHT22;11731;48.592;8.858;2023-05-10T16:43:21;15.00;99.90
23124;DHT22;11731;48.592;8.858;2023-05-10T16:45:48;15.10;99.90
23124;DHT22;11731;48.592;8.858;2023-05-10T16:48:15;15.30;99.90
23124;DHT22;11731;48.592;8.858;2023-05-10T16:50:42;15.60;99.90
23124;DHT22;11731;48.592;8.858;2023-05-10T16:53:09;15.90;99.90